Time;durP1;ratioP1;P1;durP2;ratioP2;P2;SDS_P1;SDS_P2;PMS_P1;PMS_P2;Temp;Humidity;BMP_temperature;BMP_pressure;BME280_temperature;BME280_humidity;BME280_pressure;Samples;Min_cycle;Max_cycle;Signal;HPM_P1;HPM_P2
2022/03/14 00:00:08;;;;;;;4.18;2.88;;;;;;;;;;5057289;28;20017;-79
2022/03/14 00:02:35;;;;;;;4.07;2.85;;;;;;;;;;5058309;28;20483;-80
2022/03/14 00:05:05;;;;;;;5.00;3.35;;;;;;;;;;5058031;28;20033;-80
2022/03/14 00:07:31;;;;;;;6.00;3.53;;;;;;;;;;5047359;28;20025;-79
2022/03/14 00:09:57;;;;;;;5.70;3.08;;;;;;;;;;5055774;28;20041;-78
2022/03/14 00:12:25;;;;;;;4.22;2.95;;;;;;;;;;5042380;28;20038;-80
2022/03/14 00:14:55;;;;;;;4.70;2.90;;;;;;;;;;5050720;28;20059;-80
2022/03/14 00:17:23;;;;;;;5.23;3.30;;;;;;;;;;5057316;28;20073;-80
2022/03/14 00:19:50;;;;;;;4.38;2.88;;;;;;;;;;5043622;28;20294;-81
2022/03/14 00:22:18;;;;;;;4.28;3.22;;;;;;;;;;5057148;28;20016;-80
2022/03/14 00:24:44;;;;;;;4.20;3.03;;;;;;;;;;5062915;28;20038;-80
2022/03/14 00:27:10;;;;;;;4.20;3.00;;;;;;;;;;5051185;28;20043;-80
2022/03/14 00:29:36;;;;;;;5.30;3.33;;;;;;;;;;5038912;28;20029;-80
2022/03/14 00:32:02;;;;;;;4.35;3.15;;;;;;;;;;5036408;28;20052;-81
2022/03/14 00:34:28;;;;;;;5.47;3.13;;;;;;;;;;5036943;28;20060;-80
2022/03/14 00:36:54;;;;;;;4.43;3.33;;;;;;;;;;5047077;28;20030;-80
2022/03/14 00:39:20;;;;;;;5.22;3.00;;;;;;;;;;5038567;28;20470;-80
2022/03/14 00:41:46;;;;;;;5.50;3.50;;;;;;;;;;5043818;28;20041;-79
2022/03/14 00:44:15;;;;;;;5.35;3.70;;;;;;;;;;5037839;28;20040;-81
2022/03/14 00:46:41;;;;;;;4.40;3.00;;;;;;;;;;5030931;28;20028;-79
2022/03/14 00:49:07;;;;;;;4.65;3.30;;;;;;;;;;5046132;28;20101;-78
2022/03/14 00:51:35;;;;;;;4.78;3.25;;;;;;;;;;5054197;28;20127;-79
2022/03/14 00:54:02;;;;;;;5.55;3.08;;;;;;;;;;5052822;28;20074;-80
2022/03/14 00:56:28;;;;;;;5.53;3.60;;;;;;;;;;5055261;28;20163;-79
2022/03/14 00:58:55;;;;;;;3.88;2.90;;;;;;;;;;5053146;28;20389;-79
2022/03/14 01:01:21;;;;;;;5.25;3.13;;;;;;;;;;5054831;28;20036;-79
2022/03/14 01:03:47;;;;;;;5.60;3.50;;;;;;;;;;5055931;28;20185;-79
2022/03/14 01:06:13;;;;;;;4.53;3.35;;;;;;;;;;5053624;28;20497;-81
2022/03/14 01:08:40;;;;;;;4.63;3.25;;;;;;;;;;5039327;28;20041;-82
2022/03/14 01:11:06;;;;;;;4.47;3.10;;;;;;;;;;5034837;28;20341;-80
2022/03/14 01:13:32;;;;;;;4.53;3.08;;;;;;;;;;5055476;28;20028;-80
2022/03/14 01:15:59;;;;;;;6.38;3.13;;;;;;;;;;5068124;28;20035;-80
2022/03/14 01:18:25;;;;;;;5.05;3.30;;;;;;;;;;5055791;28;20668;-79
2022/03/14 01:20:51;;;;;;;6.20;3.10;;;;;;;;;;5056276;28;20508;-80
2022/03/14 01:23:18;;;;;;;4.05;2.85;;;;;;;;;;5044426;28;20063;-80
2022/03/14 01:25:45;;;;;;;6.38;2.90;;;;;;;;;;5050716;28;20036;-80
2022/03/14 01:28:11;;;;;;;4.38;3.00;;;;;;;;;;5051143;28;20036;-80
2022/03/14 01:30:39;;;;;;;3.95;3.00;;;;;;;;;;5049901;28;20061;-81
2022/03/14 01:33:05;;;;;;;5.55;3.20;;;;;;;;;;5043685;28;20112;-78
2022/03/14 01:35:31;;;;;;;5.43;3.05;;;;;;;;;;5066376;28;20033;-80
2022/03/14 01:37:57;;;;;;;4.43;3.30;;;;;;;;;;5052137;28;20040;-78
2022/03/14 01:40:24;;;;;;;5.25;3.20;;;;;;;;;;5058862;28;20017;-79
2022/03/14 01:42:50;;;;;;;4.30;3.03;;;;;;;;;;5056881;28;20020;-80
2022/03/14 01:45:18;;;;;;;4.75;2.78;;;;;;;;;;5041764;28;20021;-80
2022/03/14 01:47:45;;;;;;;5.97;3.08;;;;;;;;;;5058573;28;20069;-80
2022/03/14 01:50:12;;;;;;;5.03;3.60;;;;;;;;;;5053225;28;20517;-82
2022/03/14 01:52:38;;;;;;;5.60;3.45;;;;;;;;;;5042524;28;20048;-80
2022/03/14 01:55:06;;;;;;;6.88;3.50;;;;;;;;;;5050501;28;20501;-79
2022/03/14 01:57:33;;;;;;;7.10;3.67;;;;;;;;;;5056408;28;20545;-79
2022/03/14 01:59:59;;;;;;;5.68;3.70;;;;;;;;;;5062323;28;20435;-79
2022/03/14 02:02:25;;;;;;;6.53;4.00;;;;;;;;;;5060637;28;20024;-79
2022/03/14 02:04:52;;;;;;;6.10;3.85;;;;;;;;;;5060880;28;20147;-81
2022/03/14 02:07:18;;;;;;;5.88;4.10;;;;;;;;;;5057117;28;20090;-80
2022/03/14 02:09:44;;;;;;;5.72;4.03;;;;;;;;;;5064840;28;20037;-79
2022/03/14 02:12:11;;;;;;;5.82;4.20;;;;;;;;;;5066119;28;20064;-81
2022/03/14 02:14:39;;;;;;;7.22;3.90;;;;;;;;;;5049751;28;20078;-81
2022/03/14 02:17:06;;;;;;;5.68;3.83;;;;;;;;;;5060604;28;20108;-80
2022/03/14 02:19:32;;;;;;;5.97;3.90;;;;;;;;;;5057784;28;20024;-80
2022/03/14 02:21:58;;;;;;;5.68;3.78;;;;;;;;;;5044335;28;20024;-80
2022/03/14 02:24:28;;;;;;;5.30;3.97;;;;;;;;;;5035258;28;20029;-79
2022/03/14 02:26:54;;;;;;;5.80;3.60;;;;;;;;;;5054692;28;20024;-80
2022/03/14 02:29:21;;;;;;;5.32;4.05;;;;;;;;;;5056086;28;20431;-79
2022/03/14 02:31:47;;;;;;;5.28;3.72;;;;;;;;;;5059089;28;20033;-79
2022/03/14 02:34:13;;;;;;;6.68;3.60;;;;;;;;;;5037474;28;20037;-81
2022/03/14 02:36:39;;;;;;;5.93;4.03;;;;;;;;;;5062493;28;20107;-81
2022/03/14 02:39:06;;;;;;;6.15;4.05;;;;;;;;;;5042907;28;20069;-78
2022/03/14 02:41:32;;;;;;;7.75;3.72;;;;;;;;;;5061797;28;20041;-81
2022/03/14 02:43:59;;;;;;;6.10;3.88;;;;;;;;;;5054054;28;20418;-80
2022/03/14 02:46:25;;;;;;;4.95;3.40;;;;;;;;;;5060064;28;20025;-79
2022/03/14 02:48:51;;;;;;;5.25;3.63;;;;;;;;;;5056769;28;20082;-79
2022/03/14 02:51:17;;;;;;;5.50;3.97;;;;;;;;;;5058441;28;20048;-78
2022/03/14 02:53:43;;;;;;;5.75;3.60;;;;;;;;;;5055552;28;20036;-79
2022/03/14 02:56:10;;;;;;;6.68;3.97;;;;;;;;;;5057526;28;20025;-79
2022/03/14 02:58:39;;;;;;;6.05;4.10;;;;;;;;;;5041838;28;20085;-79
2022/03/14 03:01:05;;;;;;;5.53;3.80;;;;;;;;;;5051457;28;20119;-77
2022/03/14 03:03:32;;;;;;;5.60;3.83;;;;;;;;;;5056571;28;20058;-80
2022/03/14 03:05:58;;;;;;;5.45;4.03;;;;;;;;;;5054505;28;20499;-78
2022/03/14 03:08:24;;;;;;;5.28;3.72;;;;;;;;;;5050572;28;20084;-80
2022/03/14 03:10:50;;;;;;;5.88;3.65;;;;;;;;;;5062435;28;20053;-79
2022/03/14 03:13:16;;;;;;;5.97;3.83;;;;;;;;;;5055213;28;20033;-79
2022/03/14 03:15:42;;;;;;;5.68;3.90;;;;;;;;;;5055695;28;20035;-79
2022/03/14 03:18:13;;;;;;;6.70;4.63;;;;;;;;;;5053464;28;20060;-77
2022/03/14 03:20:39;;;;;;;7.85;4.68;;;;;;;;;;5060127;28;20130;-78
2022/03/14 03:23:05;;;;;;;7.40;4.53;;;;;;;;;;5055871;28;20032;-79
2022/03/14 03:25:31;;;;;;;6.78;4.78;;;;;;;;;;5061861;28;20061;-80
2022/03/14 03:27:57;;;;;;;7.90;4.90;;;;;;;;;;5044215;28;20041;-78
2022/03/14 03:30:23;;;;;;;7.15;5.03;;;;;;;;;;5054586;28;20041;-78
2022/03/14 03:32:49;;;;;;;11.73;5.55;;;;;;;;;;5062894;28;20098;-78
2022/03/14 03:35:16;;;;;;;8.95;6.07;;;;;;;;;;5062295;28;20470;-78
2022/03/14 03:37:42;;;;;;;6.70;5.07;;;;;;;;;;5054684;28;20078;-77
2022/03/14 03:40:08;;;;;;;8.02;5.43;;;;;;;;;;5052571;28;20048;-79
2022/03/14 03:42:34;;;;;;;10.65;5.90;;;;;;;;;;5057631;28;20040;-78
2022/03/14 03:45:00;;;;;;;7.28;5.40;;;;;;;;;;5058807;28;20078;-77
2022/03/14 03:47:26;;;;;;;9.15;5.70;;;;;;;;;;5061185;28;20087;-79
2022/03/14 03:49:52;;;;;;;9.52;7.03;;;;;;;;;;5054414;28;20025;-79
2022/03/14 03:52:18;;;;;;;10.07;7.22;;;;;;;;;;5040355;28;20018;-79
2022/03/14 03:54:44;;;;;;;11.80;7.72;;;;;;;;;;5035488;28;20045;-78
2022/03/14 03:57:10;;;;;;;11.02;7.35;;;;;;;;;;5046018;28;20110;-79
2022/03/14 03:59:36;;;;;;;12.00;7.20;;;;;;;;;;5037952;28;20022;-79
2022/03/14 04:02:04;;;;;;;11.40;7.93;;;;;;;;;;5056188;28;20391;-79
2022/03/14 04:04:30;;;;;;;11.60;7.95;;;;;;;;;;5046005;28;20032;-79
2022/03/14 04:06:57;;;;;;;10.50;7.82;;;;;;;;;;5055832;28;20040;-78
2022/03/14 04:09:24;;;;;;;10.90;7.63;;;;;;;;;;5049616;28;20030;-77
2022/03/14 04:11:50;;;;;;;12.65;8.38;;;;;;;;;;5061338;28;20050;-79
2022/03/14 04:14:20;;;;;;;12.80;9.40;;;;;;;;;;5031825;28;20061;-79
2022/03/14 04:16:46;;;;;;;11.30;8.80;;;;;;;;;;5069344;28;20078;-79
2022/03/14 04:19:13;;;;;;;12.70;9.38;;;;;;;;;;5060329;28;20020;-79
2022/03/14 04:21:42;;;;;;;13.02;9.88;;;;;;;;;;5056269;28;20125;-78
2022/03/14 04:24:08;;;;;;;13.25;10.02;;;;;;;;;;5057849;28;20036;-78
2022/03/14 04:26:34;;;;;;;14.15;10.60;;;;;;;;;;5055049;28;20451;-78
2022/03/14 04:29:00;;;;;;;15.05;10.95;;;;;;;;;;5046500;28;20159;-77
2022/03/14 04:31:27;;;;;;;14.30;11.07;;;;;;;;;;5053103;28;20078;-79
2022/03/14 04:33:54;;;;;;;14.18;11.48;;;;;;;;;;5048138;28;20044;-78
2022/03/14 04:36:19;;;;;;;17.35;13.25;;;;;;;;;;5055385;28;20021;-77
2022/03/14 04:38:46;;;;;;;20.63;15.20;;;;;;;;;;5051848;28;20150;-78
2022/03/14 04:41:13;;;;;;;20.63;15.63;;;;;;;;;;5055048;28;20056;-78
2022/03/14 04:43:39;;;;;;;23.90;17.83;;;;;;;;;;5056648;28;20039;-79
2022/03/14 04:46:05;;;;;;;25.92;18.75;;;;;;;;;;5064919;28;20028;-80
2022/03/14 04:48:31;;;;;;;28.52;19.77;;;;;;;;;;5047382;28;20059;-81
2022/03/14 04:50:57;;;;;;;31.63;22.60;;;;;;;;;;5062846;28;20029;-79
2022/03/14 04:53:23;;;;;;;32.17;21.95;;;;;;;;;;5040549;28;20044;-80
2022/03/14 04:55:49;;;;;;;33.15;22.00;;;;;;;;;;5066675;28;20024;-78
2022/03/14 04:58:15;;;;;;;33.67;23.60;;;;;;;;;;5052623;28;20032;-78
2022/03/14 05:00:42;;;;;;;37.40;26.23;;;;;;;;;;5065358;28;20021;-80
2022/03/14 05:03:08;;;;;;;37.95;25.75;;;;;;;;;;5066686;28;20107;-81
2022/03/14 05:05:35;;;;;;;36.13;24.55;;;;;;;;;;5051662;28;20029;-77
2022/03/14 05:08:02;;;;;;;37.47;25.30;;;;;;;;;;5064479;28;20100;-78
2022/03/14 05:10:28;;;;;;;37.00;24.95;;;;;;;;;;5063967;28;20028;-78
2022/03/14 05:12:55;;;;;;;36.70;24.75;;;;;;;;;;5055521;28;20110;-79
2022/03/14 05:15:21;;;;;;;40.40;24.75;;;;;;;;;;5058822;28;20047;-78
2022/03/14 05:17:47;;;;;;;38.40;25.83;;;;;;;;;;5060599;28;20502;-79
2022/03/14 05:20:15;;;;;;;35.22;24.48;;;;;;;;;;5057243;28;20490;-79
2022/03/14 05:22:48;;;;;;;38.03;25.20;;;;;;;;;;5047836;28;20479;-79
2022/03/14 05:25:15;;;;;;;38.08;25.23;;;;;;;;;;5046378;28;20022;-79
2022/03/14 05:27:41;;;;;;;39.63;26.05;;;;;;;;;;5052236;28;20028;-78
2022/03/14 05:30:10;;;;;;;37.00;25.63;;;;;;;;;;5054849;28;20084;-79
2022/03/14 05:32:37;;;;;;;41.33;26.42;;;;;;;;;;5053144;28;20027;-79
2022/03/14 05:35:04;;;;;;;43.78;27.45;;;;;;;;;;5067720;28;20098;-78
2022/03/14 05:37:30;;;;;;;38.60;25.98;;;;;;;;;;5057807;28;20036;-80
2022/03/14 05:39:56;;;;;;;40.47;26.70;;;;;;;;;;5054634;28;20021;-79
2022/03/14 05:42:23;;;;;;;42.80;25.45;;;;;;;;;;5058631;28;20416;-80
2022/03/14 05:44:49;;;;;;;41.33;25.73;;;;;;;;;;5064321;28;20075;-79
2022/03/14 05:47:15;;;;;;;40.38;23.42;;;;;;;;;;5054140;28;20048;-79
2022/03/14 05:49:41;;;;;;;33.28;20.45;;;;;;;;;;5068938;28;20043;-79
2022/03/14 05:52:08;;;;;;;36.55;20.20;;;;;;;;;;5057870;28;20025;-79
2022/03/14 05:54:37;;;;;;;35.65;19.63;;;;;;;;;;5057574;28;20036;-80
2022/03/14 05:57:03;;;;;;;38.90;19.58;;;;;;;;;;5053033;28;20013;-81
2022/03/14 05:59:29;;;;;;;36.63;19.10;;;;;;;;;;5052790;28;20021;-78
2022/03/14 06:01:55;;;;;;;33.63;19.02;;;;;;;;;;5051281;28;20040;-80
2022/03/14 06:04:23;;;;;;;32.65;17.70;;;;;;;;;;5054341;28;20036;-78
2022/03/14 06:06:49;;;;;;;37.42;19.02;;;;;;;;;;5048806;28;20098;-79
2022/03/14 06:09:15;;;;;;;29.02;16.60;;;;;;;;;;5055103;28;20035;-82
2022/03/14 06:11:42;;;;;;;36.42;16.00;;;;;;;;;;5058503;28;20045;-80
2022/03/14 06:14:08;;;;;;;33.97;16.83;;;;;;;;;;5048699;28;20060;-79
2022/03/14 06:16:35;;;;;;;32.20;16.88;;;;;;;;;;5052489;28;20429;-77
2022/03/14 06:19:01;;;;;;;32.97;16.30;;;;;;;;;;5049411;28;20052;-79
2022/03/14 06:21:27;;;;;;;33.65;17.75;;;;;;;;;;5056487;28;20025;-79
2022/03/14 06:23:53;;;;;;;34.15;16.38;;;;;;;;;;5045974;28;20448;-79
2022/03/14 06:26:19;;;;;;;30.55;18.25;;;;;;;;;;5044050;28;20160;-79
2022/03/14 06:28:45;;;;;;;40.85;23.02;;;;;;;;;;5042040;28;20032;-81
2022/03/14 06:31:11;;;;;;;45.65;25.83;;;;;;;;;;5056409;28;20151;-79
2022/03/14 06:33:39;;;;;;;48.92;28.13;;;;;;;;;;5055052;28;20033;-80
2022/03/14 06:36:05;;;;;;;46.88;29.45;;;;;;;;;;5057304;28;20094;-87
2022/03/14 06:38:33;;;;;;;45.83;30.52;;;;;;;;;;5063781;28;20055;-79
2022/03/14 06:41:00;;;;;;;47.10;29.17;;;;;;;;;;5058299;28;20030;-80
2022/03/14 06:43:28;;;;;;;54.80;28.80;;;;;;;;;;5060609;28;20051;-79
2022/03/14 06:45:55;;;;;;;46.08;27.77;;;;;;;;;;5074399;28;20029;-80
2022/03/14 06:48:21;;;;;;;43.90;27.90;;;;;;;;;;5049662;28;20045;-80
2022/03/14 06:50:47;;;;;;;42.15;25.75;;;;;;;;;;5066786;28;20029;-80
2022/03/14 06:53:14;;;;;;;37.53;24.10;;;;;;;;;;5069905;28;20547;-79
2022/03/14 06:55:40;;;;;;;40.03;25.02;;;;;;;;;;5069170;28;20041;-79
2022/03/14 06:58:07;;;;;;;40.42;25.30;;;;;;;;;;5056292;28;20115;-79
2022/03/14 07:00:34;;;;;;;37.05;23.92;;;;;;;;;;5051128;28;20033;-78
2022/03/14 07:03:00;;;;;;;38.92;24.05;;;;;;;;;;5052868;28;20029;-80
2022/03/14 07:05:26;;;;;;;38.35;24.65;;;;;;;;;;5047166;28;20399;-79
2022/03/14 07:07:52;;;;;;;41.53;25.02;;;;;;;;;;5048350;28;20320;-80
2022/03/14 07:10:19;;;;;;;38.97;25.13;;;;;;;;;;5044847;28;20051;-84
2022/03/14 07:12:48;;;;;;;39.35;24.73;;;;;;;;;;5045995;28;20070;-80
2022/03/14 07:15:16;;;;;;;43.78;26.73;;;;;;;;;;5053248;28;20486;-79
2022/03/14 07:17:43;;;;;;;39.72;25.13;;;;;;;;;;5057270;28;20033;-80
2022/03/14 07:20:10;;;;;;;44.70;26.80;;;;;;;;;;5054415;28;20031;-78
2022/03/14 07:22:48;;;;;;;53.50;28.52;;;;;;;;;;5035943;28;20029;-80
2022/03/14 07:25:14;;;;;;;45.72;28.67;;;;;;;;;;5058530;28;20032;-79
2022/03/14 07:27:40;;;;;;;49.83;29.42;;;;;;;;;;5062848;28;20017;-78
2022/03/14 07:30:06;;;;;;;48.45;30.33;;;;;;;;;;5037180;28;20033;-79
2022/03/14 07:32:32;;;;;;;51.50;31.65;;;;;;;;;;5057323;28;20029;-78
2022/03/14 07:34:58;;;;;;;49.72;30.13;;;;;;;;;;5048426;28;20033;-80
2022/03/14 07:37:24;;;;;;;48.72;30.65;;;;;;;;;;5050840;28;20037;-80
2022/03/14 07:39:50;;;;;;;51.25;31.58;;;;;;;;;;5057038;28;20087;-80
2022/03/14 07:42:16;;;;;;;48.13;29.98;;;;;;;;;;5055103;28;20421;-80
2022/03/14 07:44:42;;;;;;;46.90;28.38;;;;;;;;;;5057758;28;20033;-79
2022/03/14 07:47:10;;;;;;;44.83;28.77;;;;;;;;;;5050461;28;20018;-80
2022/03/14 07:49:37;;;;;;;38.83;26.33;;;;;;;;;;5037519;28;20038;-78
2022/03/14 07:52:03;;;;;;;39.05;25.70;;;;;;;;;;5045966;28;20029;-80
2022/03/14 07:54:29;;;;;;;38.28;25.85;;;;;;;;;;5052234;28;20111;-83
2022/03/14 07:56:55;;;;;;;38.70;24.60;;;;;;;;;;5038574;28;20558;-78
2022/03/14 07:59:21;;;;;;;37.05;24.60;;;;;;;;;;5045194;28;20025;-80
2022/03/14 08:01:47;;;;;;;38.22;24.35;;;;;;;;;;5040996;28;20080;-79
2022/03/14 08:04:15;;;;;;;40.05;25.65;;;;;;;;;;5046479;28;20048;-79
2022/03/14 08:06:42;;;;;;;33.35;23.70;;;;;;;;;;5038640;28;20029;-78
2022/03/14 08:09:12;;;;;;;39.92;25.88;;;;;;;;;;5043764;28;20034;-79
2022/03/14 08:11:38;;;;;;;44.83;26.05;;;;;;;;;;5053014;28;20119;-79
2022/03/14 08:14:08;;;;;;;44.70;26.63;;;;;;;;;;5056335;28;20041;-81
2022/03/14 08:16:34;;;;;;;41.97;25.73;;;;;;;;;;5053899;28;20013;-78
2022/03/14 08:19:00;;;;;;;46.17;26.33;;;;;;;;;;5050638;28;20043;-80
2022/03/14 08:21:26;;;;;;;43.20;25.63;;;;;;;;;;5047355;28;20039;-80
2022/03/14 08:23:52;;;;;;;52.22;29.58;;;;;;;;;;5053655;28;20030;-80
2022/03/14 08:26:18;;;;;;;52.33;31.20;;;;;;;;;;5056682;28;20051;-80
2022/03/14 08:28:46;;;;;;;58.42;34.83;;;;;;;;;;5053992;28;20033;-80
2022/03/14 08:31:12;;;;;;;58.25;34.20;;;;;;;;;;5042121;28;20081;-78
2022/03/14 08:33:41;;;;;;;68.20;37.83;;;;;;;;;;5046159;28;20119;-79
2022/03/14 08:36:08;;;;;;;68.25;38.50;;;;;;;;;;5055470;28;20041;-80
2022/03/14 08:38:34;;;;;;;73.63;40.22;;;;;;;;;;5049409;28;20493;-80
2022/03/14 08:41:00;;;;;;;73.88;42.30;;;;;;;;;;5042488;28;20032;-79
2022/03/14 08:43:26;;;;;;;77.15;41.75;;;;;;;;;;5036992;28;20056;-78
2022/03/14 08:45:54;;;;;;;72.97;41.92;;;;;;;;;;5047903;28;20072;-80
2022/03/14 08:48:20;;;;;;;75.45;42.83;;;;;;;;;;5045490;28;20529;-79
2022/03/14 08:50:46;;;;;;;71.30;41.22;;;;;;;;;;5063424;28;20037;-80
2022/03/14 08:53:16;;;;;;;74.25;43.28;;;;;;;;;;5042625;28;20119;-79
2022/03/14 08:55:42;;;;;;;69.97;42.22;;;;;;;;;;5046549;28;20060;-80
2022/03/14 08:58:08;;;;;;;68.40;41.28;;;;;;;;;;5050077;28;20025;-79
2022/03/14 09:00:34;;;;;;;73.30;42.55;;;;;;;;;;5040420;28;20135;-79
2022/03/14 09:03:00;;;;;;;68.70;42.95;;;;;;;;;;5059061;28;20036;-79
2022/03/14 09:05:26;;;;;;;68.53;40.67;;;;;;;;;;5074631;28;20036;-79
2022/03/14 09:07:52;;;;;;;71.45;42.63;;;;;;;;;;5037115;28;20390;-79
2022/03/14 09:10:19;;;;;;;74.93;43.05;;;;;;;;;;5042261;28;20013;-78
2022/03/14 09:12:45;;;;;;;70.93;43.10;;;;;;;;;;5039920;28;20064;-80
2022/03/14 09:15:11;;;;;;;70.25;44.97;;;;;;;;;;5066983;28;20028;-78
2022/03/14 09:17:51;;;;;;;71.78;44.00;;;;;;;;;;5039026;28;20022;-80
2022/03/14 09:20:17;;;;;;;70.28;43.45;;;;;;;;;;5037194;28;20041;-79
2022/03/14 09:22:44;;;;;;;77.07;45.05;;;;;;;;;;5055034;28;20375;-78
2022/03/14 09:25:11;;;;;;;71.00;43.53;;;;;;;;;;5057451;28;20016;-80
2022/03/14 09:27:37;;;;;;;77.95;43.83;;;;;;;;;;5047225;28;20100;-79
2022/03/14 09:30:04;;;;;;;68.65;44.45;;;;;;;;;;5035984;28;20402;-78
2022/03/14 09:32:30;;;;;;;71.72;43.95;;;;;;;;;;5038283;28;20068;-78
2022/03/14 09:34:59;;;;;;;85.35;45.55;;;;;;;;;;5041501;28;20048;-78
2022/03/14 09:37:25;;;;;;;73.80;42.53;;;;;;;;;;5044127;28;20428;-81
2022/03/14 09:39:51;;;;;;;74.18;43.75;;;;;;;;;;5037707;28;20010;-79
2022/03/14 09:42:20;;;;;;;65.13;39.90;;;;;;;;;;5031772;28;20072;-80
2022/03/14 09:44:53;;;;;;;68.65;40.63;;;;;;;;;;5053749;28;20079;-81
2022/03/14 09:47:19;;;;;;;62.15;40.08;;;;;;;;;;5055683;28;20132;-79
2022/03/14 09:49:46;;;;;;;70.85;41.60;;;;;;;;;;5051972;28;20035;-80
2022/03/14 09:52:14;;;;;;;64.95;38.50;;;;;;;;;;5072468;28;20113;-79
2022/03/14 09:54:40;;;;;;;55.42;36.42;;;;;;;;;;5062679;28;20033;-79
2022/03/14 09:57:06;;;;;;;57.13;35.30;;;;;;;;;;5051015;28;20035;-79
2022/03/14 09:59:33;;;;;;;49.95;33.33;;;;;;;;;;5032541;28;20037;-80
2022/03/14 10:01:59;;;;;;;48.75;32.55;;;;;;;;;;5030761;28;20037;-80
2022/03/14 10:04:25;;;;;;;50.80;33.00;;;;;;;;;;5047850;28;20063;-78
2022/03/14 10:06:51;;;;;;;52.35;33.53;;;;;;;;;;5073076;28;20037;-79
2022/03/14 10:09:17;;;;;;;53.35;33.20;;;;;;;;;;5054254;28;20140;-79
2022/03/14 10:11:44;;;;;;;57.60;34.13;;;;;;;;;;5031722;28;20140;-81
2022/03/14 10:14:11;;;;;;;53.53;32.25;;;;;;;;;;5017199;28;20036;-81
2022/03/14 10:16:37;;;;;;;53.10;33.20;;;;;;;;;;5035189;28;20511;-80
2022/03/14 10:19:07;;;;;;;53.58;33.20;;;;;;;;;;5051053;28;20025;-79
2022/03/14 10:21:40;;;;;;;59.08;36.03;;;;;;;;;;5056027;28;20035;-78
2022/03/14 10:24:07;;;;;;;58.65;35.33;;;;;;;;;;5039880;28;20037;-79
2022/03/14 10:26:33;;;;;;;96.47;37.00;;;;;;;;;;5048042;28;20441;-80
2022/03/14 10:29:00;;;;;;;51.40;33.13;;;;;;;;;;5039309;28;20470;-79
2022/03/14 10:31:34;;;;;;;54.25;33.17;;;;;;;;;;5040354;28;20055;-80
2022/03/14 10:34:12;;;;;;;45.47;29.63;;;;;;;;;;5072720;28;20041;-78
2022/03/14 10:36:43;;;;;;;46.47;28.95;;;;;;;;;;5061051;28;20529;-79
2022/03/14 10:39:09;;;;;;;;;;;;;;;;;;5047121;28;20029;-80
2022/03/14 10:41:35;;;;;;;44.53;26.42;;;;;;;;;;5060379;28;19907;-80
2022/03/14 10:44:01;;;;;;;44.92;27.27;;;;;;;;;;5060602;28;20044;-81
2022/03/14 10:46:27;;;;;;;41.83;25.67;;;;;;;;;;5065197;28;20024;-81
2022/03/14 10:48:53;;;;;;;46.38;26.85;;;;;;;;;;5070686;28;20125;-80
2022/03/14 10:51:19;;;;;;;41.17;25.30;;;;;;;;;;5060239;28;20075;-80
2022/03/14 10:53:46;;;;;;;44.08;23.90;;;;;;;;;;5057657;28;20057;-80
2022/03/14 10:56:12;;;;;;;44.20;25.92;;;;;;;;;;5060987;28;20017;-80
2022/03/14 10:58:39;;;;;;;47.90;29.63;;;;;;;;;;5041062;28;20033;-80
2022/03/14 11:01:05;;;;;;;47.75;30.73;;;;;;;;;;5039212;28;20037;-80
2022/03/14 11:03:31;;;;;;;54.03;30.50;;;;;;;;;;5056765;28;20040;-80
2022/03/14 11:06:01;;;;;;;46.38;28.98;;;;;;;;;;5061070;28;20029;-79
2022/03/14 11:08:30;;;;;;;41.67;28.05;;;;;;;;;;5058153;28;20021;-80
2022/03/14 11:10:57;;;;;;;40.33;25.05;;;;;;;;;;5054821;28;20037;-80
2022/03/14 11:13:24;;;;;;;42.25;24.75;;;;;;;;;;5052667;28;20024;-77
2022/03/14 11:15:50;;;;;;;37.42;23.88;;;;;;;;;;5050191;28;20072;-78
2022/03/14 11:18:18;;;;;;;35.00;22.35;;;;;;;;;;5055094;28;20029;-79
2022/03/14 11:20:44;;;;;;;41.00;24.40;;;;;;;;;;5058626;28;20033;-78
2022/03/14 11:23:12;;;;;;;39.85;23.88;;;;;;;;;;5053516;28;20107;-79
2022/03/14 11:25:39;;;;;;;42.15;24.40;;;;;;;;;;5051364;28;20021;-79
2022/03/14 11:28:06;;;;;;;39.35;23.23;;;;;;;;;;5041404;28;20033;-79
2022/03/14 11:30:36;;;;;;;40.65;23.88;;;;;;;;;;5047403;28;20052;-79
2022/03/14 11:33:03;;;;;;;39.05;22.52;;;;;;;;;;5079215;28;20489;-78
2022/03/14 11:35:30;;;;;;;35.38;19.90;;;;;;;;;;5046762;28;20043;-77
2022/03/14 11:37:57;;;;;;;28.92;19.95;;;;;;;;;;5042141;28;20039;-79
2022/03/14 11:40:23;;;;;;;35.60;20.45;;;;;;;;;;5039125;28;20021;-76
2022/03/14 11:42:49;;;;;;;50.42;22.23;;;;;;;;;;5050007;28;20071;-79
2022/03/14 11:45:16;;;;;;;36.08;19.55;;;;;;;;;;5055312;28;20041;-78
2022/03/14 11:47:42;;;;;;;30.70;19.20;;;;;;;;;;5052512;28;20111;-78
2022/03/14 11:50:11;;;;;;;32.03;19.58;;;;;;;;;;5052125;28;20111;-78
2022/03/14 11:52:41;;;;;;;32.80;17.77;;;;;;;;;;5036605;28;20475;-78
2022/03/14 11:55:18;;;;;;;33.53;20.47;;;;;;;;;;5039600;28;20033;-78
2022/03/14 11:57:44;;;;;;;34.30;21.48;;;;;;;;;;5033465;28;20311;-78
2022/03/14 12:00:27;;;;;;;32.92;21.83;;;;;;;;;;5049739;28;20474;-78
2022/03/14 12:02:53;;;;;;;33.10;17.83;;;;;;;;;;5032170;28;20021;-76
2022/03/14 12:05:23;;;;;;;28.40;14.65;;;;;;;;;;5042757;28;20028;-77
2022/03/14 12:07:51;;;;;;;23.17;13.03;;;;;;;;;;5037452;28;20491;-78
2022/03/14 12:10:27;;;;;;;24.15;12.32;;;;;;;;;;5046519;28;20366;-78
2022/03/14 12:12:53;;;;;;;28.17;13.27;;;;;;;;;;5049500;28;20029;-79
2022/03/14 12:15:37;;;;;;;22.67;12.95;;;;;;;;;;5041047;28;20026;-78
2022/03/14 12:18:22;;;;;;;22.00;11.50;;;;;;;;;;5036883;28;20142;-77
2022/03/14 12:20:48;;;;;;;20.35;11.70;;;;;;;;;;5053268;28;20031;-77
2022/03/14 12:23:25;;;;;;;26.10;12.13;;;;;;;;;;5052318;28;20032;-77
2022/03/14 12:25:51;;;;;;;20.40;11.52;;;;;;;;;;5038921;28;20575;-77
2022/03/14 12:28:28;;;;;;;28.95;13.55;;;;;;;;;;5050373;28;20084;-76
2022/03/14 12:31:10;;;;;;;23.88;11.70;;;;;;;;;;5039986;28;20029;-77
2022/03/14 12:33:41;;;;;;;20.90;10.98;;;;;;;;;;5034055;28;20387;-77
2022/03/14 12:36:22;;;;;;;30.45;12.85;;;;;;;;;;5042528;28;20466;-77
2022/03/14 12:39:10;;;;;;;22.95;12.32;;;;;;;;;;5046063;28;20029;-79
2022/03/14 12:41:36;;;;;;;18.73;10.43;;;;;;;;;;5041413;28;20032;-76
2022/03/14 12:44:15;;;;;;;22.60;9.75;;;;;;;;;;5051465;28;20036;-76
2022/03/14 12:46:46;;;;;;;20.13;10.37;;;;;;;;;;5043343;28;20067;-81
2022/03/14 12:49:12;;;;;;;24.40;10.65;;;;;;;;;;5061749;28;20533;-87
2022/03/14 12:51:39;;;;;;;25.25;11.52;;;;;;;;;;5058417;28;20462;-79
2022/03/14 12:54:06;;;;;;;30.50;12.98;;;;;;;;;;5058554;28;20510;-79
2022/03/14 12:56:32;;;;;;;32.80;12.52;;;;;;;;;;5044021;28;20044;-79
2022/03/14 12:59:03;;;;;;;33.38;11.85;;;;;;;;;;5054953;28;20057;-78
2022/03/14 13:01:31;;;;;;;26.42;11.82;;;;;;;;;;5051498;28;20112;-76
2022/03/14 13:03:57;;;;;;;21.00;11.93;;;;;;;;;;5039415;28;20056;-78
2022/03/14 13:06:31;;;;;;;33.40;12.70;;;;;;;;;;5052336;28;20501;-78
2022/03/14 13:08:58;;;;;;;25.42;12.00;;;;;;;;;;5035369;28;20055;-79
2022/03/14 13:11:31;;;;;;;30.15;12.88;;;;;;;;;;5045074;28;20070;-78
2022/03/14 13:14:01;;;;;;;22.63;11.63;;;;;;;;;;5035177;28;20025;-77
2022/03/14 13:16:28;;;;;;;24.70;11.80;;;;;;;;;;5048343;28;20033;-78
2022/03/14 13:18:54;;;;;;;18.20;12.52;;;;;;;;;;5049447;28;20490;-77
2022/03/14 13:21:27;;;;;;;20.63;10.18;;;;;;;;;;5045071;28;20107;-76
2022/03/14 13:23:55;;;;;;;27.40;10.90;;;;;;;;;;5053593;28;20037;-78
2022/03/14 13:26:22;;;;;;;21.33;11.20;;;;;;;;;;5063023;28;20029;-79
2022/03/14 13:28:48;;;;;;;22.95;11.85;;;;;;;;;;5052649;28;20064;-81
2022/03/14 13:31:14;;;;;;;21.50;11.73;;;;;;;;;;5050712;28;20075;-85
2022/03/14 13:33:42;;;;;;;21.90;12.48;;;;;;;;;;5053798;28;20443;-81
2022/03/14 13:36:09;;;;;;;22.52;14.00;;;;;;;;;;5065986;28;20533;-84
2022/03/14 13:38:37;;;;;;;27.33;15.57;;;;;;;;;;5056798;28;20035;-80
2022/03/14 13:41:08;;;;;;;25.02;14.68;;;;;;;;;;5072325;28;20040;-84
2022/03/14 13:43:36;;;;;;;22.67;13.90;;;;;;;;;;5059426;28;20040;-85
2022/03/14 13:46:20;;;;;;;27.02;13.82;;;;;;;;;;5067679;28;20111;-85
2022/03/14 13:48:50;;;;;;;23.13;12.75;;;;;;;;;;5069488;28;20044;-81
2022/03/14 13:51:17;;;;;;;23.55;13.88;;;;;;;;;;5058687;28;20032;-80
2022/03/14 13:53:46;;;;;;;23.13;12.65;;;;;;;;;;5069436;28;20036;-85
2022/03/14 13:56:12;;;;;;;24.27;13.95;;;;;;;;;;5070734;28;20028;-84
2022/03/14 13:58:39;;;;;;;25.35;14.60;;;;;;;;;;5057148;28;20042;-81
2022/03/14 14:01:05;;;;;;;22.95;12.65;;;;;;;;;;5071513;28;20481;-77
2022/03/14 14:03:35;;;;;;;22.80;13.77;;;;;;;;;;5061789;28;20033;-77
2022/03/14 14:06:15;;;;;;;29.27;13.73;;;;;;;;;;5061897;28;20040;-79
2022/03/14 14:08:41;;;;;;;30.20;13.02;;;;;;;;;;5060311;28;20102;-78
2022/03/14 14:11:11;;;;;;;28.10;13.40;;;;;;;;;;5062787;28;20048;-77
2022/03/14 14:13:47;;;;;;;21.98;11.77;;;;;;;;;;5054929;28;20409;-78
2022/03/14 14:16:20;;;;;;;25.10;12.45;;;;;;;;;;5057574;28;20098;-78
2022/03/14 14:19:06;;;;;;;22.88;10.57;;;;;;;;;;5068323;28;20504;-79
2022/03/14 14:21:32;;;;;;;20.65;11.88;;;;;;;;;;5057065;28;20048;-77
2022/03/14 14:23:58;;;;;;;20.98;9.70;;;;;;;;;;5061685;28;20032;-77
2022/03/14 14:26:31;;;;;;;22.92;9.52;;;;;;;;;;5039871;28;20478;-79